createdAt,value
2019-05-16T00:02:01.375Z,5.00
2019-05-16T00:04:30.384Z,4.75
2019-05-16T00:07:00.835Z,4.20
2019-05-16T00:09:31.235Z,4.30
2019-05-16T00:12:01.638Z,4.20
2019-05-16T00:14:32.116Z,4.30
2019-05-16T00:17:02.482Z,4.37
2019-05-16T00:19:32.900Z,5.30
2019-05-16T00:22:03.289Z,4.20
2019-05-16T00:24:33.669Z,4.75
2019-05-16T00:27:04.064Z,5.15
2019-05-16T00:29:34.428Z,5.97
2019-05-16T00:32:04.857Z,4.20
2019-05-16T00:34:35.225Z,5.80
2019-05-16T00:37:05.628Z,5.35
2019-05-16T00:39:36.132Z,5.25
2019-05-16T00:42:08.592Z,5.80
2019-05-16T00:44:38.851Z,6.55
2019-05-16T00:47:09.235Z,5.45
2019-05-16T00:49:39.621Z,5.85
2019-05-16T00:52:10.108Z,5.80
2019-05-16T00:54:40.507Z,6.60
2019-05-16T00:57:11.514Z,5.78
2019-05-16T00:59:42.423Z,4.83
2019-05-16T01:02:12.784Z,4.17
2019-05-16T01:04:44.639Z,4.03
2019-05-16T01:07:15.256Z,4.53
2019-05-16T01:09:45.668Z,4.70
2019-05-16T01:12:17.879Z,4.20
2019-05-16T01:14:48.285Z,3.90
2019-05-16T01:17:18.647Z,4.47
2019-05-16T01:19:49.042Z,4.40
2019-05-16T01:22:20.903Z,4.08
2019-05-16T01:24:51.352Z,4.37
2019-05-16T01:27:21.717Z,4.28
2019-05-16T01:29:52.128Z,5.20
2019-05-16T01:32:23.395Z,4.30
2019-05-16T01:34:53.874Z,5.28
2019-05-16T01:37:24.241Z,3.92
2019-05-16T01:39:54.631Z,5.00
2019-05-16T01:42:25.160Z,4.40
2019-05-16T01:44:57.704Z,4.87
2019-05-16T01:47:28.784Z,4.75
2019-05-16T01:50:00.102Z,4.72
2019-05-16T01:52:30.613Z,4.58
2019-05-16T01:55:01.042Z,4.37
2019-05-16T01:57:31.458Z,4.62
2019-05-16T02:00:01.891Z,3.92
2019-05-16T02:02:32.372Z,4.62
2019-05-16T02:05:02.798Z,4.22
2019-05-16T02:07:33.201Z,3.40
2019-05-16T02:10:04.579Z,3.55
2019-05-16T02:12:34.972Z,3.17
2019-05-16T02:15:08.084Z,2.65
2019-05-16T02:17:38.729Z,2.08
2019-05-16T02:20:09.355Z,2.30
2019-05-16T02:22:39.836Z,2.47
2019-05-16T02:25:10.622Z,2.40
2019-05-16T02:27:41.245Z,2.10
2019-05-16T02:30:12.774Z,3.37
2019-05-16T02:32:43.344Z,1.90
2019-05-16T02:35:13.875Z,3.25
2019-05-16T02:37:44.266Z,2.30
2019-05-16T02:40:20.816Z,2.37
2019-05-16T02:42:51.511Z,2.12
2019-05-16T02:45:24.554Z,2.00
2019-05-16T02:47:54.264Z,2.10
2019-05-16T02:50:24.808Z,1.82
2019-05-16T02:52:55.300Z,1.80
2019-05-16T02:55:25.703Z,1.50
2019-05-16T02:57:56.162Z,2.10
2019-05-16T03:00:36.962Z,1.82
2019-05-16T03:03:07.451Z,1.60
2019-05-16T03:05:38.015Z,1.75
2019-05-16T03:08:11.754Z,1.92
2019-05-16T03:10:41.451Z,2.10
2019-05-16T03:13:12.007Z,2.33
2019-05-16T03:15:45.087Z,1.42
2019-05-16T03:18:17.566Z,1.50
2019-05-16T03:20:51.200Z,2.33
2019-05-16T03:23:21.959Z,1.57
2019-05-16T03:25:52.401Z,2.30
2019-05-16T03:28:22.876Z,1.87
2019-05-16T03:30:55.178Z,1.80
2019-05-16T03:33:32.675Z,1.72
2019-05-16T03:35:57.789Z,1.90
2019-05-16T03:38:30.601Z,3.75
2019-05-16T03:41:01.104Z,1.82
2019-05-16T03:43:31.636Z,2.40
2019-05-16T03:46:02.747Z,1.75
2019-05-16T03:48:33.290Z,1.72
2019-05-16T03:51:04.493Z,1.50
2019-05-16T03:53:34.931Z,2.08
2019-05-16T03:56:05.286Z,2.55
2019-05-16T03:58:35.685Z,2.20
2019-05-16T04:01:06.109Z,2.17
2019-05-16T04:03:40.958Z,1.82
2019-05-16T04:06:11.860Z,1.98
2019-05-16T04:08:42.170Z,1.70
2019-05-16T04:11:16.225Z,2.15
2019-05-16T04:13:46.201Z,1.92
2019-05-16T04:16:16.584Z,2.20
2019-05-16T04:18:46.985Z,2.20
2019-05-16T04:21:21.811Z,2.10
2019-05-16T04:23:50.986Z,2.17
2019-05-16T04:26:21.988Z,3.17
2019-05-16T04:28:52.448Z,2.40
2019-05-16T04:31:22.858Z,2.37
2019-05-16T04:33:53.337Z,3.27
2019-05-16T04:36:25.367Z,2.15
2019-05-16T04:38:55.735Z,2.02
2019-05-16T04:41:26.108Z,2.15
2019-05-16T04:44:00.551Z,4.25
2019-05-16T04:46:31.261Z,2.12
2019-05-16T04:49:01.687Z,2.77
2019-05-16T04:51:32.391Z,2.35
2019-05-16T04:54:07.136Z,1.85
2019-05-16T04:56:36.426Z,1.77
2019-05-16T04:59:06.901Z,1.72
2019-05-16T05:01:37.366Z,2.00
2019-05-16T05:04:11.768Z,1.70
2019-05-16T05:06:42.214Z,3.08
2019-05-16T05:09:12.644Z,2.67
2019-05-16T05:11:43.010Z,2.50
2019-05-16T05:14:13.428Z,2.85
2019-05-16T05:16:43.802Z,1.95
2019-05-16T05:19:14.204Z,1.50
2019-05-16T05:21:44.563Z,4.28
2019-05-16T05:24:14.960Z,2.10
2019-05-16T05:26:45.344Z,1.80
2019-05-16T05:29:15.769Z,2.12
2019-05-16T05:31:46.211Z,4.47
2019-05-16T05:34:16.643Z,2.10
2019-05-16T05:36:51.021Z,2.20
2019-05-16T05:39:20.924Z,3.90
2019-05-16T05:41:51.368Z,1.72
2019-05-16T05:44:21.770Z,2.12
2019-05-16T05:46:52.161Z,3.22
2019-05-16T05:49:25.516Z,2.40
2019-05-16T05:51:55.941Z,2.98
2019-05-16T05:54:27.149Z,2.47
2019-05-16T05:56:57.544Z,2.77
2019-05-16T05:59:30.424Z,2.30
2019-05-16T06:02:00.894Z,2.33
2019-05-16T06:04:33.022Z,3.25
2019-05-16T06:07:03.459Z,3.58
2019-05-16T06:09:35.319Z,2.00
2019-05-16T06:12:07.518Z,2.05
2019-05-16T06:14:37.839Z,1.62
2019-05-16T06:17:11.262Z,2.72
2019-05-16T06:19:40.348Z,2.08
2019-05-16T06:22:10.833Z,1.95
2019-05-16T06:24:41.204Z,1.50
2019-05-16T06:27:11.594Z,1.82
2019-05-16T06:29:42.408Z,2.42
2019-05-16T06:32:12.768Z,2.72
2019-05-16T06:34:43.152Z,1.80
2019-05-16T06:37:13.723Z,1.52
2019-05-16T06:39:45.375Z,1.70
2019-05-16T06:42:16.036Z,1.67
2019-05-16T06:44:46.440Z,2.17
2019-05-16T06:47:20.692Z,1.90
2019-05-16T06:49:50.863Z,2.08
2019-05-16T06:52:21.010Z,2.25
2019-05-16T06:54:53.847Z,1.98
2019-05-16T06:57:23.500Z,2.87
2019-05-16T06:59:53.930Z,2.02
2019-05-16T07:02:29.855Z,2.10
2019-05-16T07:04:56.442Z,1.75
2019-05-16T07:07:27.027Z,1.90
2019-05-16T07:10:03.566Z,1.87
2019-05-16T07:12:33.389Z,3.00
2019-05-16T07:15:02.312Z,3.75
2019-05-16T07:17:32.805Z,2.00
2019-05-16T07:20:03.227Z,3.95
2019-05-16T07:22:33.671Z,2.77
2019-05-16T07:25:06.545Z,2.22
2019-05-16T07:27:37.045Z,2.47
2019-05-16T07:30:10.572Z,3.45
2019-05-16T07:32:40.760Z,2.42
2019-05-16T07:35:11.551Z,3.85
2019-05-16T07:37:41.934Z,3.77
2019-05-16T07:40:20.089Z,2.33
2019-05-16T07:42:44.640Z,2.47
2019-05-16T07:45:15.182Z,1.80
2019-05-16T07:47:45.579Z,3.50
2019-05-16T07:50:19.972Z,1.90
2019-05-16T07:52:51.133Z,2.40
2019-05-16T07:55:21.817Z,2.37
2019-05-16T07:57:52.274Z,2.15
2019-05-16T08:00:45.910Z,3.15
2019-05-16T08:02:54.726Z,2.77
2019-05-16T08:05:25.101Z,3.00
2019-05-16T08:07:55.670Z,2.77
2019-05-16T08:10:38.059Z,3.55
2019-05-16T08:13:03.404Z,2.80
2019-05-16T08:15:30.499Z,2.75
2019-05-16T08:18:03.251Z,2.47
2019-05-16T08:20:33.096Z,3.85
2019-05-16T08:23:03.505Z,5.10
2019-05-16T08:25:33.888Z,2.72
2019-05-16T08:28:04.287Z,4.58
2019-05-16T08:30:36.204Z,3.17
2019-05-16T08:33:13.554Z,3.45
2019-05-16T08:35:41.813Z,3.10
2019-05-16T08:41:04.394Z,4.53
2019-05-16T08:43:21.356Z,4.40
2019-05-16T08:45:51.613Z,3.22
2019-05-16T08:48:23.465Z,3.25
2019-05-16T08:50:54.969Z,2.85
2019-05-16T08:53:25.553Z,2.95
2019-05-16T08:55:55.985Z,5.47
2019-05-16T08:58:26.422Z,4.40
2019-05-16T09:00:56.829Z,3.15
2019-05-16T09:03:27.360Z,4.40
2019-05-16T09:06:02.999Z,6.75
2019-05-16T09:08:31.308Z,5.25
2019-05-16T09:10:34.703Z,3.08
2019-05-16T09:11:15.864Z,4.70
2019-05-16T09:13:36.847Z,3.22
2019-05-16T09:16:07.786Z,3.55
2019-05-16T09:18:41.287Z,3.90
2019-05-16T09:21:10.205Z,3.90
2019-05-16T09:23:40.683Z,2.50
2019-05-16T09:26:15.417Z,2.15
2019-05-16T09:28:47.855Z,4.78
2019-05-16T09:31:17.912Z,3.98
2019-05-16T09:33:48.688Z,1.70
2019-05-16T09:36:19.070Z,3.27
2019-05-16T09:38:49.610Z,2.10
2019-05-16T09:41:20.143Z,4.85
2019-05-16T09:43:50.588Z,2.30
2019-05-16T09:46:21.040Z,2.75
2019-05-16T09:49:11.639Z,1.60
2019-05-16T09:51:23.508Z,3.47
2019-05-16T09:53:56.770Z,2.77
2019-05-16T09:56:27.249Z,2.83
2019-05-16T09:58:57.707Z,2.58
2019-05-16T10:01:28.198Z,2.00
2019-05-16T10:03:58.564Z,1.77
2019-05-16T10:06:30.420Z,2.52
2019-05-16T10:09:00.912Z,2.30
2019-05-16T10:11:32.765Z,3.22
2019-05-16T10:14:07.235Z,2.40
2019-05-16T10:16:37.202Z,2.10
2019-05-16T10:19:07.671Z,3.08
2019-05-16T10:21:38.219Z,1.90
2019-05-16T10:24:08.998Z,2.10
2019-05-16T10:26:39.701Z,2.33
2019-05-16T10:29:11.690Z,2.77
2019-05-16T10:31:49.428Z,3.62
2019-05-16T10:34:17.386Z,2.98
2019-05-16T10:36:48.146Z,2.95
2019-05-16T10:39:18.804Z,2.47
2019-05-16T10:41:49.470Z,2.30
2019-05-16T10:44:20.171Z,2.52
2019-05-16T10:46:50.826Z,3.37
2019-05-16T10:49:36.160Z,3.98
2019-05-16T10:51:53.227Z,4.97
2019-05-16T10:54:23.925Z,1.90
2019-05-16T10:56:57.449Z,2.20
2019-05-16T11:02:01.191Z,2.30
2019-05-16T11:04:52.868Z,3.20
2019-05-16T11:07:08.258Z,3.08
2019-05-16T11:09:39.455Z,2.80
2019-05-16T11:12:10.199Z,4.62
2019-05-16T11:14:40.792Z,3.33
2019-05-16T11:17:12.946Z,3.17
2019-05-16T11:19:46.421Z,4.15
2019-05-16T11:22:18.634Z,7.10
2019-05-16T11:24:50.225Z,3.55
2019-05-16T11:27:22.384Z,3.92
2019-05-16T11:29:53.065Z,4.83
2019-05-16T11:32:26.978Z,7.62
2019-05-16T11:34:57.599Z,7.17
2019-05-16T11:37:28.475Z,8.05
2019-05-16T11:39:59.122Z,7.28
2019-05-16T11:42:33.101Z,6.95
2019-05-16T11:45:09.486Z,7.83
2019-05-16T11:47:39.313Z,7.33
2019-05-16T11:50:12.212Z,6.22
2019-05-16T11:52:42.754Z,6.55
2019-05-16T11:55:13.383Z,8.85
2019-05-16T11:57:47.612Z,4.90
2019-05-16T12:00:18.366Z,6.37
2019-05-16T12:02:50.518Z,5.97
2019-05-16T12:05:21.059Z,6.25
2019-05-16T12:07:51.490Z,7.00
2019-05-16T12:10:22.793Z,6.95
2019-05-16T12:12:53.352Z,6.00
2019-05-16T12:15:23.733Z,5.60
2019-05-16T12:18:03.872Z,6.10
2019-05-16T12:20:27.843Z,9.20
2019-05-16T12:22:58.295Z,5.78
2019-05-16T12:25:30.134Z,8.43
2019-05-16T12:28:03.707Z,6.58
2019-05-16T12:30:34.337Z,15.15
2019-05-16T12:33:07.121Z,5.30
2019-05-16T12:35:40.076Z,6.90
2019-05-16T12:38:11.704Z,5.78
2019-05-16T12:40:42.435Z,5.47
2019-05-16T12:43:12.995Z,5.45
2019-05-16T12:45:43.448Z,6.25
2019-05-16T12:48:19.346Z,5.85
2019-05-16T12:50:48.046Z,5.80
2019-05-16T12:53:18.064Z,9.25
2019-05-16T12:55:48.521Z,24.67
2019-05-16T12:58:25.044Z,9.13
2019-05-16T13:00:57.419Z,9.45
2019-05-16T13:03:23.392Z,6.45
2019-05-16T13:05:53.900Z,6.85
2019-05-16T13:08:26.635Z,7.00
2019-05-16T13:10:57.805Z,10.90
2019-05-16T13:13:28.440Z,7.35
2019-05-16T13:15:58.998Z,11.88
2019-05-16T13:18:29.549Z,7.37
2019-05-16T13:21:00.098Z,8.38
2019-05-16T13:23:30.997Z,10.23
2019-05-16T13:26:01.461Z,8.68
2019-05-16T13:28:33.537Z,8.20
2019-05-16T13:31:03.906Z,9.55
2019-05-16T13:33:36.699Z,9.53
2019-05-16T13:36:07.524Z,15.20
2019-05-16T13:38:38.217Z,14.83
2019-05-16T13:41:08.689Z,13.32
2019-05-16T13:43:39.110Z,13.95
2019-05-16T13:46:09.550Z,10.78
2019-05-16T13:48:40.235Z,9.93
2019-05-16T13:51:15.527Z,9.95
2019-05-16T13:53:43.701Z,14.25
2019-05-16T13:56:17.352Z,10.50
2019-05-16T13:58:48.163Z,18.50
2019-05-16T14:01:21.797Z,25.12
2019-05-16T14:03:50.857Z,26.62
2019-05-16T14:06:21.329Z,16.02
2019-05-16T14:08:52.719Z,12.93
2019-05-16T14:11:23.402Z,10.72
2019-05-16T14:13:56.237Z,11.38
2019-05-16T14:16:27.845Z,12.18
2019-05-16T14:18:58.438Z,8.80
2019-05-16T14:21:29.088Z,12.82
2019-05-16T14:23:59.386Z,17.62
2019-05-16T14:26:29.839Z,8.68
2019-05-16T14:29:00.502Z,12.03
2019-05-16T14:31:30.926Z,13.68
2019-05-16T14:34:01.573Z,19.35
2019-05-16T14:36:32.168Z,13.15
2019-05-16T14:39:03.307Z,11.93
2019-05-16T14:41:33.843Z,18.87
2019-05-16T14:44:04.562Z,8.98
2019-05-16T14:46:37.798Z,16.12
2019-05-16T14:49:07.653Z,12.80
2019-05-16T14:51:38.837Z,7.58
2019-05-16T14:54:09.436Z,7.42
2019-05-16T14:56:40.784Z,8.98
2019-05-16T14:59:11.310Z,12.98
2019-05-16T15:01:41.823Z,8.68
2019-05-16T15:04:15.315Z,8.33
2019-05-16T15:06:48.082Z,14.18
2019-05-16T15:09:18.851Z,10.72
2019-05-16T15:11:49.481Z,12.28
2019-05-16T15:14:20.128Z,10.10
2019-05-16T15:16:51.999Z,9.45
2019-05-16T15:19:22.726Z,19.77
2019-05-16T15:21:53.155Z,16.23
2019-05-16T15:24:23.775Z,9.60
2019-05-16T15:27:00.899Z,9.78
2019-05-16T15:29:27.043Z,12.98
2019-05-16T15:31:57.566Z,9.05
2019-05-16T15:34:30.295Z,11.40
2019-05-16T15:37:00.233Z,16.50
2019-05-16T15:39:30.679Z,16.32
2019-05-16T15:42:01.094Z,18.20
2019-05-16T15:44:31.514Z,20.45
2019-05-16T15:47:01.969Z,15.20
2019-05-16T15:49:32.384Z,20.08
2019-05-16T15:52:02.927Z,10.75
2019-05-16T15:54:33.481Z,17.67
2019-05-16T15:57:03.921Z,11.28
2019-05-16T15:59:34.332Z,11.43
2019-05-16T16:02:07.107Z,10.58
2019-05-16T16:04:37.441Z,12.78
2019-05-16T16:07:08.101Z,15.48
2019-05-16T16:09:38.518Z,46.83
2019-05-16T16:12:10.976Z,24.30
2019-05-16T16:14:41.471Z,26.95
2019-05-16T16:17:11.863Z,17.05
2019-05-16T16:19:43.337Z,33.10
2019-05-16T16:22:13.722Z,29.57
2019-05-16T16:24:44.139Z,30.90
2019-05-16T16:27:16.884Z,19.67
2019-05-16T16:29:48.082Z,25.95
2019-05-16T16:32:18.638Z,25.40
2019-05-16T16:34:49.213Z,14.47
2019-05-16T16:37:19.636Z,14.83
2019-05-16T16:39:50.124Z,25.72
2019-05-16T16:42:20.603Z,13.90
2019-05-16T16:44:51.083Z,11.80
2019-05-16T16:47:22.930Z,15.13
2019-05-16T16:49:53.438Z,15.45
2019-05-16T16:52:23.884Z,15.32
2019-05-16T16:54:56.686Z,18.73
2019-05-16T16:57:27.063Z,23.07
2019-05-16T16:59:57.635Z,21.95
2019-05-16T17:02:28.055Z,20.37
2019-05-16T17:05:01.526Z,100.10
2019-05-16T17:07:30.715Z,16.60
2019-05-16T17:10:01.149Z,25.00
2019-05-16T17:12:31.575Z,26.77
2019-05-16T17:15:02.029Z,39.78
2019-05-16T17:17:32.452Z,18.37
2019-05-16T17:20:02.873Z,26.45
2019-05-16T17:22:33.326Z,19.87
2019-05-16T17:25:07.118Z,16.30
2019-05-16T17:27:37.783Z,28.87
2019-05-16T17:30:17.144Z,22.70
2019-05-16T17:32:49.165Z,17.27
2019-05-16T17:35:26.730Z,35.48
2019-05-16T17:37:57.308Z,18.92
2019-05-16T17:40:27.826Z,17.10
2019-05-16T17:42:58.197Z,18.65
2019-05-16T17:45:28.944Z,15.55
2019-05-16T17:47:59.422Z,15.85
2019-05-16T17:50:29.799Z,16.20
2019-05-16T17:53:00.233Z,17.05
2019-05-16T17:55:30.615Z,14.20
2019-05-16T17:58:01.027Z,17.05
2019-05-16T18:00:31.469Z,28.27
2019-05-16T18:03:02.671Z,12.90
2019-05-16T18:05:33.137Z,20.12
2019-05-16T18:08:03.523Z,14.93
2019-05-16T18:10:36.318Z,28.12
2019-05-16T18:13:07.998Z,28.67
2019-05-16T18:15:38.503Z,23.07
2019-05-16T18:18:08.900Z,22.45
2019-05-16T18:20:39.466Z,27.40
2019-05-16T18:23:09.868Z,51.53
2019-05-16T18:25:40.232Z,31.23
2019-05-16T18:28:11.467Z,30.95
2019-05-16T18:30:41.867Z,27.65
2019-05-16T18:33:12.345Z,24.10
2019-05-16T18:35:42.728Z,47.27
2019-05-16T18:38:14.649Z,31.87
2019-05-16T18:40:47.247Z,23.18
2019-05-16T18:43:17.144Z,29.40
2019-05-16T18:45:47.639Z,40.15
2019-05-16T18:48:18.050Z,40.78
2019-05-16T18:50:48.534Z,33.73
2019-05-16T18:53:18.951Z,30.70
2019-05-16T18:55:50.935Z,26.95
2019-05-16T18:58:22.805Z,27.20
2019-05-16T19:00:53.314Z,28.67
2019-05-16T19:03:23.701Z,26.93
2019-05-16T19:05:54.151Z,22.20
2019-05-16T19:08:26.880Z,23.52
2019-05-16T19:11:00.039Z,29.50
2019-05-16T19:13:29.677Z,29.65
2019-05-16T19:16:00.129Z,27.55
2019-05-16T19:18:30.520Z,31.23
2019-05-16T19:21:00.982Z,32.53
2019-05-16T19:23:31.370Z,29.05
2019-05-16T19:26:01.794Z,34.53
2019-05-16T19:28:32.235Z,37.83
2019-05-16T19:31:02.649Z,27.77
2019-05-16T19:33:34.552Z,43.87
2019-05-16T19:36:07.280Z,30.12
2019-05-16T19:38:37.910Z,28.67
2019-05-16T19:41:08.367Z,34.03
2019-05-16T19:43:38.800Z,26.12
2019-05-16T19:46:09.191Z,26.57
2019-05-16T19:48:39.680Z,34.85
2019-05-16T19:51:12.531Z,28.32
2019-05-16T19:53:42.928Z,29.30
2019-05-16T19:56:14.764Z,24.37
2019-05-16T19:58:46.761Z,24.43
2019-05-16T20:01:17.252Z,28.52
2019-05-16T20:03:47.711Z,27.20
2019-05-16T20:06:18.178Z,29.02
2019-05-16T20:08:48.614Z,30.50
2019-05-16T20:11:19.008Z,33.08
2019-05-16T20:13:49.456Z,33.02
2019-05-16T20:16:19.917Z,32.40
2019-05-16T20:18:52.831Z,28.35
2019-05-16T20:21:27.357Z,32.28
2019-05-16T20:23:56.909Z,30.05
2019-05-16T20:26:27.427Z,35.80
2019-05-16T20:28:59.491Z,31.93
2019-05-16T20:31:30.072Z,29.20
2019-05-16T20:34:00.538Z,31.05
2019-05-16T20:36:32.474Z,28.90
2019-05-16T20:39:03.121Z,41.30
2019-05-16T20:41:36.747Z,34.40
2019-05-16T20:44:07.413Z,33.75
2019-05-16T20:46:37.826Z,34.38
2019-05-16T20:49:08.198Z,32.45
2019-05-16T20:51:39.442Z,29.57
2019-05-16T20:54:09.814Z,36.30
2019-05-16T20:56:40.238Z,30.77
2019-05-16T20:59:10.622Z,30.15
2019-05-16T21:01:41.206Z,30.30
2019-05-16T21:04:11.584Z,30.60
2019-05-16T21:06:56.798Z,32.25
2019-05-16T21:09:14.111Z,29.70
2019-05-16T21:11:46.822Z,33.28
2019-05-16T21:14:16.599Z,31.23
2019-05-16T21:16:49.486Z,31.93
2019-05-16T21:19:19.101Z,36.68
2019-05-16T21:21:49.577Z,37.42
2019-05-16T21:24:22.165Z,30.37
2019-05-16T21:26:52.926Z,31.20
2019-05-16T21:29:23.301Z,34.23
2019-05-16T21:31:53.708Z,41.45
2019-05-16T21:34:27.226Z,40.30
2019-05-16T21:37:11.016Z,34.73
2019-05-16T21:39:29.966Z,39.38
2019-05-16T21:42:00.328Z,42.65
2019-05-16T21:44:32.244Z,35.40
2019-05-16T21:47:02.684Z,43.55
2019-05-16T21:49:36.606Z,36.40
2019-05-16T21:52:07.461Z,34.88
2019-05-16T21:54:37.861Z,33.60
2019-05-16T21:57:08.251Z,35.30
2019-05-16T21:59:38.678Z,32.33
2019-05-16T22:02:09.058Z,33.70
2019-05-16T22:04:39.459Z,29.42
2019-05-16T22:07:10.029Z,34.75
2019-05-16T22:09:40.438Z,36.75
2019-05-16T22:12:10.830Z,36.70
2019-05-16T22:14:46.639Z,35.15
2019-05-16T22:17:16.948Z,34.05
2019-05-16T22:19:47.642Z,30.25
2019-05-16T22:22:18.084Z,35.75
2019-05-16T22:24:49.317Z,36.90
2019-05-16T22:27:19.942Z,33.73
2019-05-16T22:29:50.510Z,33.42
2019-05-16T22:32:21.087Z,36.75
2019-05-16T22:34:51.551Z,36.90
2019-05-16T22:37:21.955Z,38.08
2019-05-16T22:39:52.370Z,33.88
2019-05-16T22:42:22.852Z,36.03
2019-05-16T22:44:53.216Z,38.83
2019-05-16T22:47:23.636Z,37.15
2019-05-16T22:49:56.590Z,44.33
2019-05-16T22:52:26.573Z,40.48
2019-05-16T22:54:57.074Z,40.08
2019-05-16T22:57:27.502Z,44.88
2019-05-16T22:59:57.872Z,41.88
2019-05-16T23:02:29.873Z,45.48
2019-05-16T23:05:00.278Z,45.30
2019-05-16T23:07:30.671Z,45.35
2019-05-16T23:10:02.577Z,48.68
2019-05-16T23:12:32.953Z,48.83
2019-05-16T23:15:03.769Z,47.35
2019-05-16T23:17:34.150Z,53.63
2019-05-16T23:20:06.337Z,56.48
2019-05-16T23:22:36.980Z,56.55
2019-05-16T23:25:07.375Z,60.63
2019-05-16T23:27:37.847Z,69.10
2019-05-16T23:30:09.521Z,74.92
2019-05-16T23:32:39.956Z,79.40
2019-05-16T23:35:10.535Z,81.90
2019-05-16T23:37:42.412Z,86.45
2019-05-16T23:40:14.309Z,83.70
2019-05-16T23:42:46.461Z,82.20
2019-05-16T23:45:17.359Z,79.95
2019-05-16T23:47:47.841Z,85.57
2019-05-16T23:50:18.245Z,95.17
2019-05-16T23:52:50.184Z,88.05
2019-05-16T23:55:20.641Z,93.27
2019-05-16T23:57:51.045Z,90.15
